sensor_id;sensor_type;location;lat;lon;timestamp;P1;durP1;ratioP1;P2;durP2;ratioP2
2860;SDS011;1438;50.922;6.704;2022-08-21T06:18:09;5.67;;;3.43;;
2860;SDS011;1438;50.922;6.704;2022-08-21T06:20:42;7.53;;;4.00;;
2860;SDS011;1438;50.922;6.704;2022-08-21T06:23:08;9.70;;;3.70;;
2860;SDS011;1438;50.922;6.704;2022-08-21T06:25:34;6.33;;;3.90;;
2860;SDS011;1438;50.922;6.704;2022-08-21T06:28:01;9.10;;;3.57;;
2860;SDS011;1438;50.922;6.704;2022-08-21T06:30:31;6.73;;;4.13;;
2860;SDS011;1438;50.922;6.704;2022-08-21T06:32:57;6.40;;;4.10;;
2860;SDS011;1438;50.922;6.704;2022-08-21T06:35:23;5.77;;;4.00;;
2860;SDS011;1438;50.922;6.704;2022-08-21T06:37:49;9.43;;;3.63;;
2860;SDS011;1438;50.922;6.704;2022-08-21T06:40:15;6.30;;;3.30;;
2860;SDS011;1438;50.922;6.704;2022-08-21T06:42:41;8.03;;;3.60;;
2860;SDS011;1438;50.922;6.704;2022-08-21T06:45:07;7.00;;;4.23;;
2860;SDS011;1438;50.922;6.704;2022-08-21T06:47:33;6.70;;;3.70;;
2860;SDS011;1438;50.922;6.704;2022-08-21T06:49:59;10.83;;;4.60;;
2860;SDS011;1438;50.922;6.704;2022-08-21T06:52:25;6.13;;;3.97;;
2860;SDS011;1438;50.922;6.704;2022-08-21T06:54:50;6.10;;;4.20;;
2860;SDS011;1438;50.922;6.704;2022-08-21T06:57:16;14.40;;;4.33;;
2860;SDS011;1438;50.922;6.704;2022-08-21T06:59:41;6.93;;;3.80;;
2860;SDS011;1438;50.922;6.704;2022-08-21T07:02:07;7.20;;;3.10;;
2860;SDS011;1438;50.922;6.704;2022-08-21T07:04:33;6.93;;;3.43;;
2860;SDS011;1438;50.922;6.704;2022-08-21T07:06:58;8.43;;;3.47;;
2860;SDS011;1438;50.922;6.704;2022-08-21T07:09:24;6.47;;;4.07;;
2860;SDS011;1438;50.922;6.704;2022-08-21T07:11:50;5.03;;;3.47;;
2860;SDS011;1438;50.922;6.704;2022-08-21T07:14:18;7.20;;;3.37;;
2860;SDS011;1438;50.922;6.704;2022-08-21T07:16:44;13.10;;;3.43;;
2860;SDS011;1438;50.922;6.704;2022-08-21T07:19:10;6.47;;;3.10;;
2860;SDS011;1438;50.922;6.704;2022-08-21T07:21:35;6.80;;;3.17;;
2860;SDS011;1438;50.922;6.704;2022-08-21T07:24:01;6.70;;;3.27;;
2860;SDS011;1438;50.922;6.704;2022-08-21T07:26:27;7.07;;;4.33;;
2860;SDS011;1438;50.922;6.704;2022-08-21T07:28:53;7.20;;;3.30;;
2860;SDS011;1438;50.922;6.704;2022-08-21T07:31:20;10.07;;;3.77;;
2860;SDS011;1438;50.922;6.704;2022-08-21T07:33:47;6.47;;;2.83;;
2860;SDS011;1438;50.922;6.704;2022-08-21T07:36:14;6.20;;;3.10;;
2860;SDS011;1438;50.922;6.704;2022-08-21T07:38:40;5.27;;;3.60;;
2860;SDS011;1438;50.922;6.704;2022-08-21T07:41:27;8.07;;;3.40;;
2860;SDS011;1438;50.922;6.704;2022-08-21T07:43:53;3.90;;;2.07;;
2860;SDS011;1438;50.922;6.704;2022-08-21T07:46:20;11.03;;;3.07;;
2860;SDS011;1438;50.922;6.704;2022-08-21T07:48:46;4.60;;;2.77;;
2860;SDS011;1438;50.922;6.704;2022-08-21T07:51:12;16.03;;;2.30;;
2860;SDS011;1438;50.922;6.704;2022-08-21T07:53:39;4.80;;;2.80;;
2860;SDS011;1438;50.922;6.704;2022-08-21T07:56:05;9.07;;;4.00;;
2860;SDS011;1438;50.922;6.704;2022-08-21T07:58:33;10.90;;;2.37;;
2860;SDS011;1438;50.922;6.704;2022-08-21T08:01:19;8.07;;;2.27;;
2860;SDS011;1438;50.922;6.704;2022-08-21T08:04:37;8.07;;;2.17;;
2860;SDS011;1438;50.922;6.704;2022-08-21T08:14:00;11.03;;;2.73;;
2860;SDS011;1438;50.922;6.704;2022-08-21T08:16:58;5.73;;;2.37;;
2860;SDS011;1438;50.922;6.704;2022-08-21T08:22:19;9.70;;;2.10;;
2860;SDS011;1438;50.922;6.704;2022-08-21T08:24:47;3.77;;;1.50;;
2860;SDS011;1438;50.922;6.704;2022-08-21T08:27:13;4.17;;;1.70;;
2860;SDS011;1438;50.922;6.704;2022-08-21T08:29:39;2.33;;;1.30;;
2860;SDS011;1438;50.922;6.704;2022-08-21T08:32:05;3.60;;;1.53;;
2860;SDS011;1438;50.922;6.704;2022-08-21T08:34:32;5.00;;;1.60;;
2860;SDS011;1438;50.922;6.704;2022-08-21T08:37:02;3.13;;;1.30;;
2860;SDS011;1438;50.922;6.704;2022-08-21T08:39:28;4.93;;;1.60;;
2860;SDS011;1438;50.922;6.704;2022-08-21T08:44:32;2.50;;;1.10;;
2860;SDS011;1438;50.922;6.704;2022-08-21T08:46:59;2.63;;;1.20;;
2860;SDS011;1438;50.922;6.704;2022-08-21T08:52:03;6.10;;;1.53;;
2860;SDS011;1438;50.922;6.704;2022-08-21T08:57:09;4.80;;;1.50;;
2860;SDS011;1438;50.922;6.704;2022-08-21T08:59:41;6.97;;;1.77;;
2860;SDS011;1438;50.922;6.704;2022-08-21T09:02:09;5.27;;;1.67;;
2860;SDS011;1438;50.922;6.704;2022-08-21T09:04:37;5.03;;;2.03;;
2860;SDS011;1438;50.922;6.704;2022-08-21T09:09:55;5.60;;;1.97;;
2860;SDS011;1438;50.922;6.704;2022-08-21T09:15:00;5.17;;;1.90;;
2860;SDS011;1438;50.922;6.704;2022-08-21T09:23:11;6.50;;;2.07;;
2860;SDS011;1438;50.922;6.704;2022-08-21T09:29:43;4.00;;;1.93;;
2860;SDS011;1438;50.922;6.704;2022-08-21T09:32:31;5.53;;;1.60;;
2860;SDS011;1438;50.922;6.704;2022-08-21T09:35:21;5.57;;;1.97;;
2860;SDS011;1438;50.922;6.704;2022-08-21T09:41:10;7.97;;;2.20;;
2860;SDS011;1438;50.922;6.704;2022-08-21T09:43:37;5.57;;;1.93;;
2860;SDS011;1438;50.922;6.704;2022-08-21T09:52:19;5.13;;;1.70;;
2860;SDS011;1438;50.922;6.704;2022-08-21T09:54:49;7.50;;;1.53;;
2860;SDS011;1438;50.922;6.704;2022-08-21T09:57:20;7.27;;;2.27;;
2860;SDS011;1438;50.922;6.704;2022-08-21T10:00:37;6.20;;;1.97;;
2860;SDS011;1438;50.922;6.704;2022-08-21T10:05:54;8.00;;;1.67;;
2860;SDS011;1438;50.922;6.704;2022-08-21T10:08:21;4.70;;;2.00;;
2860;SDS011;1438;50.922;6.704;2022-08-21T10:29:27;3.33;;;1.63;;
2860;SDS011;1438;50.922;6.704;2022-08-21T10:32:08;4.50;;;1.77;;
2860;SDS011;1438;50.922;6.704;2022-08-21T10:34:59;3.90;;;1.50;;
2860;SDS011;1438;50.922;6.704;2022-08-21T10:37:42;2.77;;;1.47;;
2860;SDS011;1438;50.922;6.704;2022-08-21T10:40:34;4.60;;;2.33;;
2860;SDS011;1438;50.922;6.704;2022-08-21T10:43:30;7.63;;;2.00;;
2860;SDS011;1438;50.922;6.704;2022-08-21T10:46:08;8.37;;;2.17;;
2860;SDS011;1438;50.922;6.704;2022-08-21T10:48:41;3.97;;;1.63;;
2860;SDS011;1438;50.922;6.704;2022-08-21T10:51:28;6.50;;;1.67;;
2860;SDS011;1438;50.922;6.704;2022-08-21T10:54:05;4.43;;;1.57;;
2860;SDS011;1438;50.922;6.704;2022-08-21T10:56:47;2.50;;;1.63;;
2860;SDS011;1438;50.922;6.704;2022-08-21T11:02:17;4.57;;;1.67;;
2860;SDS011;1438;50.922;6.704;2022-08-21T11:04:51;4.80;;;1.80;;
2860;SDS011;1438;50.922;6.704;2022-08-21T11:07:19;2.70;;;1.30;;
2860;SDS011;1438;50.922;6.704;2022-08-21T11:10:26;2.90;;;1.50;;
2860;SDS011;1438;50.922;6.704;2022-08-21T11:13:00;2.80;;;1.40;;
2860;SDS011;1438;50.922;6.704;2022-08-21T11:20:50;4.00;;;1.63;;
2860;SDS011;1438;50.922;6.704;2022-08-21T11:23:26;5.07;;;1.60;;
2860;SDS011;1438;50.922;6.704;2022-08-21T11:26:02;6.87;;;1.97;;
2860;SDS011;1438;50.922;6.704;2022-08-21T11:28:37;5.30;;;2.17;;
2860;SDS011;1438;50.922;6.704;2022-08-21T11:36:34;6.27;;;1.50;;
2860;SDS011;1438;50.922;6.704;2022-08-21T11:39:25;3.67;;;2.00;;
2860;SDS011;1438;50.922;6.704;2022-08-21T11:41:54;3.83;;;1.60;;
2860;SDS011;1438;50.922;6.704;2022-08-21T11:45:02;3.10;;;1.30;;
2860;SDS011;1438;50.922;6.704;2022-08-21T11:50:29;5.10;;;2.00;;
2860;SDS011;1438;50.922;6.704;2022-08-21T11:58:23;4.30;;;1.63;;
2860;SDS011;1438;50.922;6.704;2022-08-21T12:00:57;4.90;;;1.93;;
2860;SDS011;1438;50.922;6.704;2022-08-21T12:03:51;6.60;;;2.30;;
2860;SDS011;1438;50.922;6.704;2022-08-21T12:06:32;4.00;;;1.80;;
2860;SDS011;1438;50.922;6.704;2022-08-21T12:09:07;2.73;;;1.40;;
2860;SDS011;1438;50.922;6.704;2022-08-21T12:11:47;12.27;;;2.60;;
2860;SDS011;1438;50.922;6.704;2022-08-21T12:14:16;5.00;;;1.80;;
2860;SDS011;1438;50.922;6.704;2022-08-21T12:16:47;5.40;;;1.90;;
2860;SDS011;1438;50.922;6.704;2022-08-21T12:24:45;3.97;;;1.80;;
2860;SDS011;1438;50.922;6.704;2022-08-21T12:29:45;4.73;;;1.70;;
2860;SDS011;1438;50.922;6.704;2022-08-21T12:40:21;6.63;;;2.10;;
2860;SDS011;1438;50.922;6.704;2022-08-21T12:43:28;3.83;;;1.60;;
2860;SDS011;1438;50.922;6.704;2022-08-21T12:45:58;3.10;;;1.53;;
2860;SDS011;1438;50.922;6.704;2022-08-21T12:48:29;5.73;;;1.90;;
2860;SDS011;1438;50.922;6.704;2022-08-21T12:56:09;4.00;;;2.03;;
2860;SDS011;1438;50.922;6.704;2022-08-21T12:58:39;9.50;;;2.20;;
2860;SDS011;1438;50.922;6.704;2022-08-21T13:04:02;5.30;;;1.80;;
2860;SDS011;1438;50.922;6.704;2022-08-21T13:06:45;5.00;;;1.70;;
2860;SDS011;1438;50.922;6.704;2022-08-21T13:09:18;4.77;;;2.00;;
2860;SDS011;1438;50.922;6.704;2022-08-21T13:11:47;7.13;;;2.03;;
2860;SDS011;1438;50.922;6.704;2022-08-21T13:14:35;5.80;;;1.83;;
2860;SDS011;1438;50.922;6.704;2022-08-21T13:17:03;5.63;;;1.90;;
2860;SDS011;1438;50.922;6.704;2022-08-21T13:19:30;5.17;;;1.60;;
2860;SDS011;1438;50.922;6.704;2022-08-21T13:21:57;4.90;;;1.83;;
2860;SDS011;1438;50.922;6.704;2022-08-21T13:26:51;5.93;;;1.80;;
2860;SDS011;1438;50.922;6.704;2022-08-21T13:29:19;4.87;;;1.77;;
2860;SDS011;1438;50.922;6.704;2022-08-21T13:31:48;5.80;;;2.00;;
2860;SDS011;1438;50.922;6.704;2022-08-21T13:34:26;4.97;;;1.80;;
2860;SDS011;1438;50.922;6.704;2022-08-21T13:36:59;2.30;;;1.37;;
2860;SDS011;1438;50.922;6.704;2022-08-21T13:39:28;3.90;;;1.40;;
2860;SDS011;1438;50.922;6.704;2022-08-21T13:41:55;2.33;;;1.30;;
2860;SDS011;1438;50.922;6.704;2022-08-21T13:44:24;3.87;;;1.50;;
2860;SDS011;1438;50.922;6.704;2022-08-21T13:46:56;3.60;;;1.40;;
2860;SDS011;1438;50.922;6.704;2022-08-21T13:49:47;2.30;;;1.40;;
2860;SDS011;1438;50.922;6.704;2022-08-21T13:52:16;3.13;;;1.40;;
2860;SDS011;1438;50.922;6.704;2022-08-21T13:55:00;3.47;;;1.40;;
2860;SDS011;1438;50.922;6.704;2022-08-21T13:57:37;4.00;;;1.30;;
2860;SDS011;1438;50.922;6.704;2022-08-21T14:00:09;3.67;;;1.40;;
2860;SDS011;1438;50.922;6.704;2022-08-21T14:02:42;2.00;;;1.20;;
2860;SDS011;1438;50.922;6.704;2022-08-21T14:05:15;8.43;;;1.53;;
2860;SDS011;1438;50.922;6.704;2022-08-21T14:08:02;3.90;;;1.63;;
2860;SDS011;1438;50.922;6.704;2022-08-21T14:10:31;4.70;;;1.70;;
2860;SDS011;1438;50.922;6.704;2022-08-21T14:13:02;2.73;;;1.20;;
2860;SDS011;1438;50.922;6.704;2022-08-21T14:15:31;4.50;;;1.60;;
2860;SDS011;1438;50.922;6.704;2022-08-21T14:18:13;3.33;;;1.40;;
2860;SDS011;1438;50.922;6.704;2022-08-21T14:20:41;3.80;;;1.50;;
2860;SDS011;1438;50.922;6.704;2022-08-21T14:23:08;2.90;;;1.50;;
2860;SDS011;1438;50.922;6.704;2022-08-21T14:25:40;3.50;;;1.37;;
2860;SDS011;1438;50.922;6.704;2022-08-21T14:28:28;2.70;;;1.30;;
2860;SDS011;1438;50.922;6.704;2022-08-21T14:30:59;4.20;;;1.40;;
2860;SDS011;1438;50.922;6.704;2022-08-21T14:33:40;5.83;;;1.87;;
2860;SDS011;1438;50.922;6.704;2022-08-21T14:36:06;2.60;;;1.23;;
2860;SDS011;1438;50.922;6.704;2022-08-21T14:38:32;4.13;;;1.60;;
2860;SDS011;1438;50.922;6.704;2022-08-21T14:41:03;2.83;;;1.10;;
2860;SDS011;1438;50.922;6.704;2022-08-21T14:43:35;3.07;;;1.60;;
2860;SDS011;1438;50.922;6.704;2022-08-21T14:46:01;3.97;;;1.63;;
2860;SDS011;1438;50.922;6.704;2022-08-21T14:48:28;2.70;;;1.37;;
2860;SDS011;1438;50.922;6.704;2022-08-21T14:50:54;3.13;;;1.20;;
2860;SDS011;1438;50.922;6.704;2022-08-21T14:53:20;2.40;;;1.20;;
2860;SDS011;1438;50.922;6.704;2022-08-21T14:55:46;3.37;;;1.33;;
2860;SDS011;1438;50.922;6.704;2022-08-21T14:58:29;3.13;;;1.50;;
2860;SDS011;1438;50.922;6.704;2022-08-21T15:00:56;5.10;;;1.87;;
2860;SDS011;1438;50.922;6.704;2022-08-21T15:03:24;2.70;;;1.20;;
2860;SDS011;1438;50.922;6.704;2022-08-21T15:05:51;3.80;;;1.33;;
2860;SDS011;1438;50.922;6.704;2022-08-21T15:08:17;3.43;;;1.20;;
2860;SDS011;1438;50.922;6.704;2022-08-21T15:10:43;2.90;;;1.27;;
2860;SDS011;1438;50.922;6.704;2022-08-21T15:13:09;3.03;;;1.33;;
2860;SDS011;1438;50.922;6.704;2022-08-21T15:15:38;1.90;;;1.07;;
2860;SDS011;1438;50.922;6.704;2022-08-21T15:18:06;4.00;;;1.83;;
2860;SDS011;1438;50.922;6.704;2022-08-21T15:20:32;3.10;;;1.60;;
2860;SDS011;1438;50.922;6.704;2022-08-21T15:22:58;3.23;;;1.37;;
2860;SDS011;1438;50.922;6.704;2022-08-21T15:25:24;3.30;;;1.13;;
2860;SDS011;1438;50.922;6.704;2022-08-21T15:27:49;1.83;;;1.40;;
2860;SDS011;1438;50.922;6.704;2022-08-21T15:30:15;5.10;;;1.80;;
2860;SDS011;1438;50.922;6.704;2022-08-21T15:32:41;2.30;;;1.17;;
2860;SDS011;1438;50.922;6.704;2022-08-21T15:35:07;1.77;;;1.07;;
2860;SDS011;1438;50.922;6.704;2022-08-21T15:37:33;6.60;;;1.70;;
2860;SDS011;1438;50.922;6.704;2022-08-21T15:39:59;1.40;;;1.00;;
2860;SDS011;1438;50.922;6.704;2022-08-21T15:42:25;2.60;;;1.10;;
2860;SDS011;1438;50.922;6.704;2022-08-21T15:44:53;4.90;;;1.20;;
2860;SDS011;1438;50.922;6.704;2022-08-21T15:47:21;2.73;;;1.30;;
2860;SDS011;1438;50.922;6.704;2022-08-21T15:49:51;2.80;;;0.93;;
2860;SDS011;1438;50.922;6.704;2022-08-21T15:52:18;2.70;;;1.40;;
2860;SDS011;1438;50.922;6.704;2022-08-21T15:54:45;2.33;;;1.10;;
2860;SDS011;1438;50.922;6.704;2022-08-21T15:57:13;1.93;;;1.07;;
2860;SDS011;1438;50.922;6.704;2022-08-21T15:59:42;1.50;;;0.93;;
2860;SDS011;1438;50.922;6.704;2022-08-21T16:02:15;3.50;;;1.20;;
2860;SDS011;1438;50.922;6.704;2022-08-21T16:04:46;1.80;;;1.10;;
2860;SDS011;1438;50.922;6.704;2022-08-21T16:07:12;3.30;;;1.20;;
2860;SDS011;1438;50.922;6.704;2022-08-21T16:09:38;2.30;;;1.60;;
2860;SDS011;1438;50.922;6.704;2022-08-21T16:12:04;2.10;;;1.47;;
2860;SDS011;1438;50.922;6.704;2022-08-21T16:14:31;2.83;;;1.10;;
2860;SDS011;1438;50.922;6.704;2022-08-21T16:16:59;2.50;;;1.10;;
2860;SDS011;1438;50.922;6.704;2022-08-21T16:19:25;5.47;;;1.80;;
2860;SDS011;1438;50.922;6.704;2022-08-21T16:21:52;3.57;;;1.30;;
2860;SDS011;1438;50.922;6.704;2022-08-21T16:24:18;3.20;;;1.50;;
2860;SDS011;1438;50.922;6.704;2022-08-21T16:26:44;4.30;;;1.73;;
2860;SDS011;1438;50.922;6.704;2022-08-21T16:29:10;4.17;;;1.50;;
2860;SDS011;1438;50.922;6.704;2022-08-21T16:31:36;2.63;;;1.27;;
2860;SDS011;1438;50.922;6.704;2022-08-21T16:34:02;1.93;;;1.37;;
2860;SDS011;1438;50.922;6.704;2022-08-21T16:36:28;6.30;;;1.47;;
2860;SDS011;1438;50.922;6.704;2022-08-21T16:38:54;2.53;;;1.47;;
2860;SDS011;1438;50.922;6.704;2022-08-21T16:41:21;3.30;;;1.47;;
2860;SDS011;1438;50.922;6.704;2022-08-21T16:43:50;2.90;;;0.90;;
2860;SDS011;1438;50.922;6.704;2022-08-21T16:46:16;3.07;;;1.60;;
2860;SDS011;1438;50.922;6.704;2022-08-21T16:48:43;1.93;;;1.23;;
2860;SDS011;1438;50.922;6.704;2022-08-21T16:51:09;4.90;;;1.50;;
2860;SDS011;1438;50.922;6.704;2022-08-21T16:53:35;4.07;;;1.40;;
2860;SDS011;1438;50.922;6.704;2022-08-21T16:56:02;3.17;;;1.60;;
2860;SDS011;1438;50.922;6.704;2022-08-21T16:58:34;3.67;;;1.80;;
2860;SDS011;1438;50.922;6.704;2022-08-21T17:01:09;2.73;;;1.60;;
2860;SDS011;1438;50.922;6.704;2022-08-21T17:03:37;3.20;;;1.30;;
2860;SDS011;1438;50.922;6.704;2022-08-21T17:06:06;2.60;;;1.37;;
2860;SDS011;1438;50.922;6.704;2022-08-21T17:08:33;5.33;;;1.57;;
2860;SDS011;1438;50.922;6.704;2022-08-21T17:10:59;3.30;;;1.60;;
2860;SDS011;1438;50.922;6.704;2022-08-21T17:13:26;3.30;;;1.67;;
2860;SDS011;1438;50.922;6.704;2022-08-21T17:15:52;5.33;;;2.17;;
2860;SDS011;1438;50.922;6.704;2022-08-21T17:18:19;4.40;;;1.50;;
2860;SDS011;1438;50.922;6.704;2022-08-21T17:20:48;4.27;;;1.80;;
2860;SDS011;1438;50.922;6.704;2022-08-21T17:23:15;4.40;;;1.63;;
2860;SDS011;1438;50.922;6.704;2022-08-21T17:25:43;5.50;;;1.70;;
2860;SDS011;1438;50.922;6.704;2022-08-21T17:28:20;5.70;;;1.70;;
2860;SDS011;1438;50.922;6.704;2022-08-21T17:30:49;2.57;;;1.47;;
2860;SDS011;1438;50.922;6.704;2022-08-21T17:33:18;2.60;;;1.60;;
2860;SDS011;1438;50.922;6.704;2022-08-21T17:35:44;2.43;;;1.47;;
2860;SDS011;1438;50.922;6.704;2022-08-21T17:38:11;3.87;;;1.60;;
2860;SDS011;1438;50.922;6.704;2022-08-21T17:40:37;3.70;;;1.70;;
2860;SDS011;1438;50.922;6.704;2022-08-21T17:43:05;4.13;;;1.60;;
2860;SDS011;1438;50.922;6.704;2022-08-21T17:45:33;4.20;;;1.50;;
2860;SDS011;1438;50.922;6.704;2022-08-21T17:47:59;2.50;;;1.30;;
2860;SDS011;1438;50.922;6.704;2022-08-21T17:50:25;3.93;;;1.43;;
2860;SDS011;1438;50.922;6.704;2022-08-21T17:52:52;4.20;;;1.60;;
2860;SDS011;1438;50.922;6.704;2022-08-21T17:55:17;5.10;;;1.70;;
2860;SDS011;1438;50.922;6.704;2022-08-21T17:57:48;10.17;;;2.40;;
2860;SDS011;1438;50.922;6.704;2022-08-21T18:00:15;4.20;;;1.93;;
2860;SDS011;1438;50.922;6.704;2022-08-21T18:02:43;6.90;;;1.50;;
2860;SDS011;1438;50.922;6.704;2022-08-21T18:05:11;6.43;;;1.53;;
2860;SDS011;1438;50.922;6.704;2022-08-21T18:07:38;3.67;;;1.47;;
2860;SDS011;1438;50.922;6.704;2022-08-21T18:10:06;6.13;;;1.80;;
2860;SDS011;1438;50.922;6.704;2022-08-21T18:12:39;3.00;;;1.40;;
2860;SDS011;1438;50.922;6.704;2022-08-21T18:15:07;3.40;;;1.43;;
2860;SDS011;1438;50.922;6.704;2022-08-21T18:17:36;6.00;;;1.63;;
2860;SDS011;1438;50.922;6.704;2022-08-21T18:20:03;4.37;;;1.57;;
2860;SDS011;1438;50.922;6.704;2022-08-21T18:22:30;3.43;;;2.20;;
2860;SDS011;1438;50.922;6.704;2022-08-21T18:24:58;3.10;;;1.37;;
2860;SDS011;1438;50.922;6.704;2022-08-21T18:27:24;4.80;;;1.80;;
2860;SDS011;1438;50.922;6.704;2022-08-21T19:03:09;5.27;;;1.70;;
2860;SDS011;1438;50.922;6.704;2022-08-21T19:05:36;7.57;;;2.23;;
2860;SDS011;1438;50.922;6.704;2022-08-21T19:08:03;3.17;;;1.20;;
2860;SDS011;1438;50.922;6.704;2022-08-21T19:10:29;2.47;;;1.70;;
2860;SDS011;1438;50.922;6.704;2022-08-21T19:12:58;8.93;;;2.10;;
2860;SDS011;1438;50.922;6.704;2022-08-21T19:15:24;4.83;;;1.87;;
2860;SDS011;1438;50.922;6.704;2022-08-21T19:17:53;4.77;;;1.60;;
2860;SDS011;1438;50.922;6.704;2022-08-21T19:20:38;5.10;;;2.00;;
2860;SDS011;1438;50.922;6.704;2022-08-21T19:23:06;3.90;;;1.60;;
2860;SDS011;1438;50.922;6.704;2022-08-21T19:25:33;7.43;;;1.30;;
2860;SDS011;1438;50.922;6.704;2022-08-21T19:28:05;5.77;;;1.70;;
2860;SDS011;1438;50.922;6.704;2022-08-21T19:30:36;4.70;;;1.40;;
2860;SDS011;1438;50.922;6.704;2022-08-21T19:33:04;5.10;;;1.63;;
2860;SDS011;1438;50.922;6.704;2022-08-21T19:35:34;4.37;;;1.60;;
2860;SDS011;1438;50.922;6.704;2022-08-21T19:37:59;2.60;;;1.23;;
2860;SDS011;1438;50.922;6.704;2022-08-21T19:40:25;4.27;;;1.80;;
2860;SDS011;1438;50.922;6.704;2022-08-21T19:42:50;3.07;;;1.70;;
2860;SDS011;1438;50.922;6.704;2022-08-21T19:45:16;6.03;;;2.13;;
2860;SDS011;1438;50.922;6.704;2022-08-21T19:47:46;6.60;;;2.30;;
2860;SDS011;1438;50.922;6.704;2022-08-21T19:50:13;6.20;;;1.70;;
2860;SDS011;1438;50.922;6.704;2022-08-21T19:52:39;2.03;;;1.30;;
2860;SDS011;1438;50.922;6.704;2022-08-21T19:55:08;6.73;;;1.50;;
2860;SDS011;1438;50.922;6.704;2022-08-21T19:57:35;4.40;;;1.90;;
2860;SDS011;1438;50.922;6.704;2022-08-21T20:00:05;3.90;;;1.23;;
2860;SDS011;1438;50.922;6.704;2022-08-21T20:02:34;4.53;;;1.73;;
2860;SDS011;1438;50.922;6.704;2022-08-21T20:04:59;3.17;;;1.30;;
2860;SDS011;1438;50.922;6.704;2022-08-21T20:07:25;3.63;;;1.73;;
2860;SDS011;1438;50.922;6.704;2022-08-21T20:09:51;5.83;;;1.80;;
2860;SDS011;1438;50.922;6.704;2022-08-21T20:12:17;6.03;;;1.63;;
2860;SDS011;1438;50.922;6.704;2022-08-21T20:14:44;5.03;;;1.57;;
2860;SDS011;1438;50.922;6.704;2022-08-21T20:17:11;4.30;;;1.47;;
2860;SDS011;1438;50.922;6.704;2022-08-21T20:19:41;3.90;;;1.80;;
2860;SDS011;1438;50.922;6.704;2022-08-21T20:22:08;2.60;;;1.47;;
2860;SDS011;1438;50.922;6.704;2022-08-21T20:24:34;6.77;;;1.87;;
2860;SDS011;1438;50.922;6.704;2022-08-21T20:27:00;5.50;;;1.90;;
2860;SDS011;1438;50.922;6.704;2022-08-21T20:29:27;8.47;;;1.30;;
2860;SDS011;1438;50.922;6.704;2022-08-21T20:31:55;2.70;;;1.50;;
2860;SDS011;1438;50.922;6.704;2022-08-21T20:34:21;5.23;;;1.53;;
2860;SDS011;1438;50.922;6.704;2022-08-21T20:36:46;4.10;;;1.90;;
2860;SDS011;1438;50.922;6.704;2022-08-21T20:39:12;3.37;;;1.70;;
2860;SDS011;1438;50.922;6.704;2022-08-21T20:41:38;4.80;;;2.23;;
2860;SDS011;1438;50.922;6.704;2022-08-21T20:44:04;3.80;;;1.77;;
2860;SDS011;1438;50.922;6.704;2022-08-21T20:46:35;3.63;;;1.60;;
2860;SDS011;1438;50.922;6.704;2022-08-21T20:49:01;4.40;;;1.60;;
2860;SDS011;1438;50.922;6.704;2022-08-21T20:51:35;4.77;;;1.43;;
2860;SDS011;1438;50.922;6.704;2022-08-21T21:02:06;4.10;;;1.57;;
2860;SDS011;1438;50.922;6.704;2022-08-21T21:04:50;6.70;;;2.87;;
2860;SDS011;1438;50.922;6.704;2022-08-21T21:07:33;4.27;;;1.93;;
2860;SDS011;1438;50.922;6.704;2022-08-21T21:10:07;7.20;;;1.73;;
2860;SDS011;1438;50.922;6.704;2022-08-21T21:12:37;4.80;;;1.90;;
2860;SDS011;1438;50.922;6.704;2022-08-21T21:15:11;3.10;;;1.67;;
2860;SDS011;1438;50.922;6.704;2022-08-21T21:17:54;3.80;;;1.90;;
2860;SDS011;1438;50.922;6.704;2022-08-21T21:20:32;4.73;;;1.83;;
2860;SDS011;1438;50.922;6.704;2022-08-21T21:23:12;8.63;;;1.83;;
2860;SDS011;1438;50.922;6.704;2022-08-21T21:25:44;5.00;;;2.23;;
2860;SDS011;1438;50.922;6.704;2022-08-21T21:28:19;5.57;;;2.00;;
2860;SDS011;1438;50.922;6.704;2022-08-21T21:30:50;5.10;;;2.13;;
2860;SDS011;1438;50.922;6.704;2022-08-21T21:33:15;3.67;;;1.90;;
2860;SDS011;1438;50.922;6.704;2022-08-21T21:35:46;3.93;;;1.90;;
2860;SDS011;1438;50.922;6.704;2022-08-21T21:38:23;3.10;;;2.23;;
2860;SDS011;1438;50.922;6.704;2022-08-21T21:41:55;11.20;;;2.77;;
2860;SDS011;1438;50.922;6.704;2022-08-21T21:44:36;4.83;;;2.37;;
2860;SDS011;1438;50.922;6.704;2022-08-21T21:58:25;4.57;;;2.10;;
2860;SDS011;1438;50.922;6.704;2022-08-21T22:03:43;5.07;;;2.00;;
2860;SDS011;1438;50.922;6.704;2022-08-21T22:06:31;4.60;;;2.30;;
2860;SDS011;1438;50.922;6.704;2022-08-21T22:14:39;6.30;;;2.40;;
2860;SDS011;1438;50.922;6.704;2022-08-21T22:19:46;8.53;;;2.60;;
2860;SDS011;1438;50.922;6.704;2022-08-21T22:22:16;5.30;;;2.60;;
2860;SDS011;1438;50.922;6.704;2022-08-21T22:24:46;7.40;;;2.77;;
2860;SDS011;1438;50.922;6.704;2022-08-21T22:27:15;5.60;;;2.90;;
2860;SDS011;1438;50.922;6.704;2022-08-21T22:29:48;5.20;;;2.57;;
2860;SDS011;1438;50.922;6.704;2022-08-21T22:37:45;7.93;;;2.60;;
2860;SDS011;1438;50.922;6.704;2022-08-21T22:40:14;5.10;;;3.10;;
2860;SDS011;1438;50.922;6.704;2022-08-21T22:42:56;8.77;;;3.20;;
2860;SDS011;1438;50.922;6.704;2022-08-21T22:45:31;4.50;;;2.40;;
2860;SDS011;1438;50.922;6.704;2022-08-21T22:48:17;10.40;;;3.27;;
2860;SDS011;1438;50.922;6.704;2022-08-21T22:50:45;4.70;;;2.60;;
2860;SDS011;1438;50.922;6.704;2022-08-21T22:53:21;5.10;;;2.33;;
2860;SDS011;1438;50.922;6.704;2022-08-21T22:55:54;5.47;;;2.60;;
2860;SDS011;1438;50.922;6.704;2022-08-21T22:58:24;15.13;;;2.90;;
2860;SDS011;1438;50.922;6.704;2022-08-21T23:03:46;7.87;;;2.67;;
2860;SDS011;1438;50.922;6.704;2022-08-21T23:06:24;9.77;;;2.93;;
2860;SDS011;1438;50.922;6.704;2022-08-21T23:09:28;4.90;;;2.20;;
2860;SDS011;1438;50.922;6.704;2022-08-21T23:12:06;6.40;;;2.30;;
2860;SDS011;1438;50.922;6.704;2022-08-21T23:14:52;7.90;;;2.30;;
2860;SDS011;1438;50.922;6.704;2022-08-21T23:20:19;9.83;;;2.30;;
2860;SDS011;1438;50.922;6.704;2022-08-21T23:22:54;5.83;;;2.37;;
2860;SDS011;1438;50.922;6.704;2022-08-21T23:28:35;6.37;;;3.03;;
2860;SDS011;1438;50.922;6.704;2022-08-21T23:31:24;7.23;;;2.83;;
2860;SDS011;1438;50.922;6.704;2022-08-21T23:34:04;4.30;;;2.17;;
2860;SDS011;1438;50.922;6.704;2022-08-21T23:36:39;8.73;;;2.40;;
2860;SDS011;1438;50.922;6.704;2022-08-21T23:42:30;6.00;;;2.80;;
2860;SDS011;1438;50.922;6.704;2022-08-21T23:45:17;8.83;;;2.93;;
2860;SDS011;1438;50.922;6.704;2022-08-21T23:50:48;6.23;;;2.33;;
2860;SDS011;1438;50.922;6.704;2022-08-21T23:59:13;5.60;;;2.60;;
